sensor_id;sensor_type;location;lat;lon;timestamp;pressure;altitude;pressure_sealevel;temperature;humidity
62791;BME280;48830;53.426;10.300;2022-07-29T00:01:47;102063.38;;;14.54;72.74
62791;BME280;48830;53.426;10.300;2022-07-29T00:04:13;102055.53;;;14.51;72.84
62791;BME280;48830;53.426;10.300;2022-07-29T00:06:39;102058.94;;;14.49;73.19
62791;BME280;48830;53.426;10.300;2022-07-29T00:09:05;102050.22;;;14.45;73.23
62791;BME280;48830;53.426;10.300;2022-07-29T00:11:30;102051.03;;;14.42;73.19
62791;BME280;48830;53.426;10.300;2022-07-29T00:13:56;102050.06;;;14.37;73.77
62791;BME280;48830;53.426;10.300;2022-07-29T00:16:22;102047.50;;;14.37;73.60
62791;BME280;48830;53.426;10.300;2022-07-29T00:18:48;102050.94;;;14.38;73.51
62791;BME280;48830;53.426;10.300;2022-07-29T00:21:14;102043.13;;;14.36;73.49
62791;BME280;48830;53.426;10.300;2022-07-29T00:23:39;102035.38;;;14.36;73.44
62791;BME280;48830;53.426;10.300;2022-07-29T00:26:05;102039.72;;;14.37;73.75
62791;BME280;48830;53.426;10.300;2022-07-29T00:28:31;102045.78;;;14.38;73.67
62791;BME280;48830;53.426;10.300;2022-07-29T00:30:56;102041.47;;;14.38;73.80
62791;BME280;48830;53.426;10.300;2022-07-29T00:33:21;102044.91;;;14.37;73.58
62791;BME280;48830;53.426;10.300;2022-07-29T00:35:48;102034.47;;;14.34;73.81
62791;BME280;48830;53.426;10.300;2022-07-29T00:38:17;102031.81;;;14.30;74.32
62791;BME280;48830;53.426;10.300;2022-07-29T00:40:43;102038.69;;;14.29;74.32
62791;BME280;48830;53.426;10.300;2022-07-29T00:43:09;102024.00;;;14.27;74.03
62791;BME280;48830;53.426;10.300;2022-07-29T00:45:35;102029.16;;;14.27;74.24
62791;BME280;48830;53.426;10.300;2022-07-29T00:48:01;102029.13;;;14.25;74.41
62791;BME280;48830;53.426;10.300;2022-07-29T00:50:26;102023.81;;;14.19;74.73
62791;BME280;48830;53.426;10.300;2022-07-29T00:52:52;102022.16;;;14.21;74.36
62791;BME280;48830;53.426;10.300;2022-07-29T00:55:18;102024.69;;;14.19;74.61
62791;BME280;48830;53.426;10.300;2022-07-29T00:57:45;102024.66;;;14.16;74.51
62791;BME280;48830;53.426;10.300;2022-07-29T01:00:16;102028.94;;;14.16;74.63
62791;BME280;48830;53.426;10.300;2022-07-29T01:02:43;102027.19;;;14.15;74.54
62791;BME280;48830;53.426;10.300;2022-07-29T01:05:08;102028.00;;;14.12;74.77
62791;BME280;48830;53.426;10.300;2022-07-29T01:07:36;102027.06;;;14.09;75.27
62791;BME280;48830;53.426;10.300;2022-07-29T01:10:04;102028.75;;;14.07;75.36
62791;BME280;48830;53.426;10.300;2022-07-29T01:12:30;102021.00;;;14.07;75.50
62791;BME280;48830;53.426;10.300;2022-07-29T01:14:59;102020.09;;;14.05;75.67
62791;BME280;48830;53.426;10.300;2022-07-29T01:17:33;102019.19;;;14.03;75.44
62791;BME280;48830;53.426;10.300;2022-07-29T01:20:07;102019.16;;;14.01;75.39
62791;BME280;48830;53.426;10.300;2022-07-29T01:23:03;102012.25;;;14.00;75.83
62791;BME280;48830;53.426;10.300;2022-07-29T01:29:15;102001.91;;;14.00;75.51
62791;BME280;48830;53.426;10.300;2022-07-29T01:32:10;102001.03;;;14.00;75.70
62791;BME280;48830;53.426;10.300;2022-07-29T01:40:13;101996.56;;;13.92;76.47
62791;BME280;48830;53.426;10.300;2022-07-29T01:42:43;102000.88;;;13.93;76.13
62791;BME280;48830;53.426;10.300;2022-07-29T01:45:15;101993.13;;;13.93;76.64
62791;BME280;48830;53.426;10.300;2022-07-29T01:50:58;101995.72;;;13.93;76.61
62791;BME280;48830;53.426;10.300;2022-07-29T01:53:32;101991.38;;;13.92;77.00
62791;BME280;48830;53.426;10.300;2022-07-29T01:56:00;101976.81;;;13.95;77.20
62791;BME280;48830;53.426;10.300;2022-07-29T01:58:29;101977.63;;;13.93;77.25
62791;BME280;48830;53.426;10.300;2022-07-29T02:00:57;101980.19;;;13.92;77.39
62791;BME280;48830;53.426;10.300;2022-07-29T02:03:24;101970.69;;;13.91;77.78
62791;BME280;48830;53.426;10.300;2022-07-29T02:05:52;101969.88;;;13.93;77.69
62791;BME280;48830;53.426;10.300;2022-07-29T02:08:19;101969.88;;;13.93;77.88
62791;BME280;48830;53.426;10.300;2022-07-29T02:10:46;101968.19;;;13.96;77.58
62791;BME280;48830;53.426;10.300;2022-07-29T02:13:13;101965.63;;;13.96;77.77
62791;BME280;48830;53.426;10.300;2022-07-29T02:15:42;101970.78;;;13.94;78.04
62791;BME280;48830;53.426;10.300;2022-07-29T02:18:11;101969.88;;;13.93;77.86
62791;BME280;48830;53.426;10.300;2022-07-29T02:20:39;101973.38;;;13.96;77.98
62791;BME280;48830;53.426;10.300;2022-07-29T02:23:07;101960.44;;;13.96;77.67
62791;BME280;48830;53.426;10.300;2022-07-29T02:25:35;101961.31;;;13.96;77.87
62791;BME280;48830;53.426;10.300;2022-07-29T02:28:02;101955.28;;;13.96;78.02
62791;BME280;48830;53.426;10.300;2022-07-29T02:30:30;101957.88;;;13.96;78.05
62791;BME280;48830;53.426;10.300;2022-07-29T02:32:56;101950.13;;;13.97;77.88
62791;BME280;48830;53.426;10.300;2022-07-29T02:35:23;101953.56;;;13.96;78.03
62791;BME280;48830;53.426;10.300;2022-07-29T02:37:49;101954.44;;;13.97;78.02
62791;BME280;48830;53.426;10.300;2022-07-29T02:40:37;101959.69;;;14.00;77.86
62791;BME280;48830;53.426;10.300;2022-07-29T02:43:05;101956.16;;;13.98;78.10
62791;BME280;48830;53.426;10.300;2022-07-29T02:45:32;101963.03;;;13.96;78.46
62791;BME280;48830;53.426;10.300;2022-07-29T02:47:59;101953.59;;;13.98;78.28
62791;BME280;48830;53.426;10.300;2022-07-29T02:50:34;101956.16;;;13.98;78.15
62791;BME280;48830;53.426;10.300;2022-07-29T02:53:07;101959.69;;;14.00;78.10
62791;BME280;48830;53.426;10.300;2022-07-29T02:55:39;101957.88;;;13.97;78.81
62791;BME280;48830;53.426;10.300;2022-07-29T03:00:42;101951.06;;;13.99;77.74
62791;BME280;48830;53.426;10.300;2022-07-29T03:03:13;101940.66;;;13.98;78.17
62791;BME280;48830;53.426;10.300;2022-07-29T03:05:40;101941.50;;;13.97;78.63
62791;BME280;48830;53.426;10.300;2022-07-29T03:08:08;101944.94;;;13.96;78.50
62791;BME280;48830;53.426;10.300;2022-07-29T03:10:34;101940.63;;;13.96;78.45
62791;BME280;48830;53.426;10.300;2022-07-29T03:13:04;101950.16;;;13.99;78.43
62791;BME280;48830;53.426;10.300;2022-07-29T03:15:30;101944.97;;;13.99;78.63
62791;BME280;48830;53.426;10.300;2022-07-29T03:17:57;101946.66;;;13.95;78.57
62791;BME280;48830;53.426;10.300;2022-07-29T03:20:23;101945.81;;;13.96;78.79
62791;BME280;48830;53.426;10.300;2022-07-29T03:22:49;101947.63;;;14.02;78.70
62791;BME280;48830;53.426;10.300;2022-07-29T03:25:16;101939.88;;;14.02;78.54
62791;BME280;48830;53.426;10.300;2022-07-29T03:27:43;101937.31;;;14.02;78.88
62791;BME280;48830;53.426;10.300;2022-07-29T03:30:09;101938.16;;;14.01;79.10
62791;BME280;48830;53.426;10.300;2022-07-29T03:32:35;101929.53;;;14.02;79.09
62791;BME280;48830;53.426;10.300;2022-07-29T03:35:01;101935.59;;;14.04;78.50
62791;BME280;48830;53.426;10.300;2022-07-29T03:37:26;101936.53;;;14.06;77.93
62791;BME280;48830;53.426;10.300;2022-07-29T03:39:55;101935.69;;;14.07;78.68
62791;BME280;48830;53.426;10.300;2022-07-29T03:42:24;101934.78;;;14.05;78.84
62791;BME280;48830;53.426;10.300;2022-07-29T03:44:51;101935.66;;;14.05;78.69
62791;BME280;48830;53.426;10.300;2022-07-29T03:47:22;101936.53;;;14.07;78.54
62791;BME280;48830;53.426;10.300;2022-07-29T03:49:50;101940.03;;;14.09;78.53
62791;BME280;48830;53.426;10.300;2022-07-29T03:52:17;101937.50;;;14.11;78.72
62791;BME280;48830;53.426;10.300;2022-07-29T03:54:43;101937.50;;;14.11;78.89
62791;BME280;48830;53.426;10.300;2022-07-29T03:57:10;101928.84;;;14.10;78.84
62791;BME280;48830;53.426;10.300;2022-07-29T03:59:36;101935.78;;;14.13;79.17
62791;BME280;48830;53.426;10.300;2022-07-29T04:02:04;101937.59;;;14.17;78.42
62791;BME280;48830;53.426;10.300;2022-07-29T04:04:34;101930.72;;;14.19;78.31
62791;BME280;48830;53.426;10.300;2022-07-29T04:07:00;101930.72;;;14.19;78.21
62791;BME280;48830;53.426;10.300;2022-07-29T04:09:25;101932.53;;;14.23;78.47
62791;BME280;48830;53.426;10.300;2022-07-29T04:11:51;101929.97;;;14.25;78.34
62791;BME280;48830;53.426;10.300;2022-07-29T04:14:16;101930.84;;;14.25;78.38
62791;BME280;48830;53.426;10.300;2022-07-29T04:16:42;101934.38;;;14.30;78.46
62791;BME280;48830;53.426;10.300;2022-07-29T04:19:07;101933.53;;;14.31;78.23
62791;BME280;48830;53.426;10.300;2022-07-29T04:21:39;101929.28;;;14.33;78.43
62791;BME280;48830;53.426;10.300;2022-07-29T04:24:06;101927.56;;;14.35;78.31
62791;BME280;48830;53.426;10.300;2022-07-29T04:26:33;101930.22;;;14.38;78.15
62791;BME280;48830;53.426;10.300;2022-07-29T04:28:58;101924.28;;;14.42;77.87
62791;BME280;48830;53.426;10.300;2022-07-29T04:31:24;101925.16;;;14.43;78.48
62791;BME280;48830;53.426;10.300;2022-07-29T04:33:49;101915.78;;;14.48;78.39
62791;BME280;48830;53.426;10.300;2022-07-29T04:36:14;101923.66;;;14.54;77.96
62791;BME280;48830;53.426;10.300;2022-07-29T04:38:40;101917.63;;;14.57;78.08
62791;BME280;48830;53.426;10.300;2022-07-29T04:41:06;101915.13;;;14.60;77.99
62791;BME280;48830;53.426;10.300;2022-07-29T04:43:33;101918.66;;;14.65;77.92
62791;BME280;48830;53.426;10.300;2022-07-29T04:45:58;101919.59;;;14.70;77.68
62791;BME280;48830;53.426;10.300;2022-07-29T04:48:24;101926.53;;;14.73;77.29
62791;BME280;48830;53.426;10.300;2022-07-29T04:50:50;101932.66;;;14.76;77.41
62791;BME280;48830;53.426;10.300;2022-07-29T04:53:15;101933.59;;;14.81;77.24
62791;BME280;48830;53.426;10.300;2022-07-29T04:55:41;101926.72;;;14.85;77.26
62791;BME280;48830;53.426;10.300;2022-07-29T04:58:06;101924.19;;;14.88;77.43
62791;BME280;48830;53.426;10.300;2022-07-29T05:00:32;101919.88;;;14.88;77.58
62791;BME280;48830;53.426;10.300;2022-07-29T05:02:58;101925.16;;;14.94;77.28
62791;BME280;48830;53.426;10.300;2022-07-29T05:05:24;101935.56;;;14.98;77.43
62791;BME280;48830;53.426;10.300;2022-07-29T05:07:49;101932.22;;;15.05;76.93
62791;BME280;48830;53.426;10.300;2022-07-29T05:10:14;101934.88;;;15.09;77.12
62791;BME280;48830;53.426;10.300;2022-07-29T05:12:40;101937.56;;;15.14;77.48
62791;BME280;48830;53.426;10.300;2022-07-29T05:15:06;101941.09;;;15.20;77.30
62791;BME280;48830;53.426;10.300;2022-07-29T05:17:31;101948.09;;;15.26;77.17
62791;BME280;48830;53.426;10.300;2022-07-29T05:19:57;101946.44;;;15.31;76.97
62791;BME280;48830;53.426;10.300;2022-07-29T05:22:22;101942.16;;;15.35;76.86
62791;BME280;48830;53.426;10.300;2022-07-29T05:24:48;101941.38;;;15.40;76.21
62791;BME280;48830;53.426;10.300;2022-07-29T05:27:13;101948.38;;;15.44;76.90
62791;BME280;48830;53.426;10.300;2022-07-29T05:29:39;101943.25;;;15.51;76.17
62791;BME280;48830;53.426;10.300;2022-07-29T05:32:04;101945.06;;;15.58;75.97
62791;BME280;48830;53.426;10.300;2022-07-29T05:34:31;101950.41;;;15.67;76.28
62791;BME280;48830;53.426;10.300;2022-07-29T05:36:56;101949.59;;;15.71;75.79
62791;BME280;48830;53.426;10.300;2022-07-29T05:39:23;101952.31;;;15.80;75.78
62791;BME280;48830;53.426;10.300;2022-07-29T05:41:48;101950.66;;;15.87;75.70
62791;BME280;48830;53.426;10.300;2022-07-29T05:44:14;101954.22;;;15.96;75.99
62791;BME280;48830;53.426;10.300;2022-07-29T05:46:39;101947.38;;;16.01;75.92
62791;BME280;48830;53.426;10.300;2022-07-29T05:49:05;101946.56;;;16.09;75.94
62791;BME280;48830;53.426;10.300;2022-07-29T05:51:32;101948.41;;;16.19;75.83
62791;BME280;48830;53.426;10.300;2022-07-29T05:53:58;101949.34;;;16.24;75.44
62791;BME280;48830;53.426;10.300;2022-07-29T05:56:24;101956.38;;;16.34;75.11
62791;BME280;48830;53.426;10.300;2022-07-29T05:58:49;101947.81;;;16.41;75.61
62791;BME280;48830;53.426;10.300;2022-07-29T06:01:14;101945.31;;;16.52;73.98
62791;BME280;48830;53.426;10.300;2022-07-29T06:03:40;101948.84;;;16.60;74.14
62791;BME280;48830;53.426;10.300;2022-07-29T06:06:07;101934.13;;;16.61;74.26
62791;BME280;48830;53.426;10.300;2022-07-29T06:08:33;101934.25;;;16.73;73.01
62791;BME280;48830;53.426;10.300;2022-07-29T06:11:00;101936.13;;;16.86;72.58
62791;BME280;48830;53.426;10.300;2022-07-29T06:13:25;101935.41;;;17.09;72.68
62791;BME280;48830;53.426;10.300;2022-07-29T06:15:51;101944.94;;;17.08;71.79
62791;BME280;48830;53.426;10.300;2022-07-29T06:18:16;101944.13;;;17.18;71.52
62791;BME280;48830;53.426;10.300;2022-07-29T06:20:42;101937.31;;;17.36;72.25
62791;BME280;48830;53.426;10.300;2022-07-29T06:23:07;101940.88;;;17.51;71.30
62791;BME280;48830;53.426;10.300;2022-07-29T06:25:35;101946.09;;;17.59;71.12
62791;BME280;48830;53.426;10.300;2022-07-29T06:28:02;101944.41;;;17.69;70.89
62791;BME280;48830;53.426;10.300;2022-07-29T06:30:27;101952.22;;;17.72;70.15
62791;BME280;48830;53.426;10.300;2022-07-29T06:32:54;101946.13;;;17.70;70.29
62791;BME280;48830;53.426;10.300;2022-07-29T06:35:19;101944.47;;;17.75;71.53
62791;BME280;48830;53.426;10.300;2022-07-29T06:37:45;101941.84;;;17.75;69.75
62791;BME280;48830;53.426;10.300;2022-07-29T06:40:11;101941.88;;;17.78;70.06
62791;BME280;48830;53.426;10.300;2022-07-29T06:42:55;101941.94;;;17.87;69.44
62791;BME280;48830;53.426;10.300;2022-07-29T06:45:20;101941.94;;;17.93;69.89
62791;BME280;48830;53.426;10.300;2022-07-29T06:47:46;101941.09;;;17.97;69.77
62791;BME280;48830;53.426;10.300;2022-07-29T06:50:11;101944.59;;;18.10;70.61
62791;BME280;48830;53.426;10.300;2022-07-29T06:52:40;101945.47;;;18.17;69.97
62791;BME280;48830;53.426;10.300;2022-07-29T06:55:06;101948.94;;;18.19;68.61
62791;BME280;48830;53.426;10.300;2022-07-29T06:57:32;101943.78;;;18.31;69.52
62791;BME280;48830;53.426;10.300;2022-07-29T06:59:57;101937.72;;;18.41;70.02
62791;BME280;48830;53.426;10.300;2022-07-29T07:02:23;101934.25;;;18.50;69.03
62791;BME280;48830;53.426;10.300;2022-07-29T07:04:48;101933.38;;;18.65;69.16
62791;BME280;48830;53.426;10.300;2022-07-29T07:07:14;101934.31;;;18.74;68.69
62791;BME280;48830;53.426;10.300;2022-07-29T07:09:39;101931.69;;;18.77;68.64
62791;BME280;48830;53.426;10.300;2022-07-29T07:12:05;101923.88;;;18.83;68.77
62791;BME280;48830;53.426;10.300;2022-07-29T07:14:31;101926.47;;;18.94;68.33
62791;BME280;48830;53.426;10.300;2022-07-29T07:16:56;101932.53;;;19.04;68.26
62791;BME280;48830;53.426;10.300;2022-07-29T07:19:22;101922.97;;;19.13;67.29
62791;BME280;48830;53.426;10.300;2022-07-29T07:21:47;101910.75;;;19.25;66.93
62791;BME280;48830;53.426;10.300;2022-07-29T07:24:13;101913.31;;;19.37;67.25
62791;BME280;48830;53.426;10.300;2022-07-29T07:26:38;101919.38;;;19.53;66.97
62791;BME280;48830;53.426;10.300;2022-07-29T07:29:05;101910.69;;;19.61;66.50
62791;BME280;48830;53.426;10.300;2022-07-29T07:31:31;101909.81;;;19.65;65.81
62791;BME280;48830;53.426;10.300;2022-07-29T07:33:56;101910.66;;;19.71;65.41
62791;BME280;48830;53.426;10.300;2022-07-29T07:36:22;101915.81;;;19.86;65.08
62791;BME280;48830;53.426;10.300;2022-07-29T07:38:48;101913.97;;;20.00;64.46
62791;BME280;48830;53.426;10.300;2022-07-29T07:41:14;101913.97;;;20.03;64.79
62791;BME280;48830;53.426;10.300;2022-07-29T07:43:39;101911.16;;;20.28;64.63
62791;BME280;48830;53.426;10.300;2022-07-29T07:46:05;101916.34;;;20.40;63.79
62791;BME280;48830;53.426;10.300;2022-07-29T07:48:30;101910.22;;;20.47;62.76
62791;BME280;48830;53.426;10.300;2022-07-29T07:50:56;101913.47;;;20.74;62.97
62791;BME280;48830;53.426;10.300;2022-07-29T07:53:22;101916.88;;;20.82;62.72
62791;BME280;48830;53.426;10.300;2022-07-29T07:55:47;101909.75;;;20.97;61.35
62791;BME280;48830;53.426;10.300;2022-07-29T07:58:13;101913.19;;;21.04;62.86
62791;BME280;48830;53.426;10.300;2022-07-29T08:00:38;101907.03;;;21.08;61.92
62791;BME280;48830;53.426;10.300;2022-07-29T08:03:04;101902.63;;;21.13;62.05
62791;BME280;48830;53.426;10.300;2022-07-29T08:05:29;101900.09;;;21.06;62.06
62791;BME280;48830;53.426;10.300;2022-07-29T08:07:55;101907.91;;;21.07;61.56
62791;BME280;48830;53.426;10.300;2022-07-29T08:10:20;101901.84;;;21.05;61.26
62791;BME280;48830;53.426;10.300;2022-07-29T08:13:05;101903.53;;;21.08;61.53
62791;BME280;48830;53.426;10.300;2022-07-29T08:15:31;101906.88;;;21.23;61.13
62791;BME280;48830;53.426;10.300;2022-07-29T08:17:57;101897.16;;;21.38;61.09
62791;BME280;48830;53.426;10.300;2022-07-29T08:20:22;101890.66;;;21.68;60.67
62791;BME280;48830;53.426;10.300;2022-07-29T08:22:47;101903.28;;;22.03;59.08
62791;BME280;48830;53.426;10.300;2022-07-29T08:25:13;101899.00;;;22.54;58.50
62791;BME280;48830;53.426;10.300;2022-07-29T08:27:38;101894.66;;;23.03;57.25
62791;BME280;48830;53.426;10.300;2022-07-29T08:30:04;101900.34;;;23.26;56.36
62791;BME280;48830;53.426;10.300;2022-07-29T08:32:30;101887.78;;;23.42;56.65
62791;BME280;48830;53.426;10.300;2022-07-29T08:34:56;101897.84;;;23.65;55.06
62791;BME280;48830;53.426;10.300;2022-07-29T08:37:22;101896.69;;;23.77;54.63
62791;BME280;48830;53.426;10.300;2022-07-29T08:39:47;101895.31;;;23.99;54.70
62791;BME280;48830;53.426;10.300;2022-07-29T08:42:13;101893.69;;;23.95;53.36
62791;BME280;48830;53.426;10.300;2022-07-29T08:44:39;101897.50;;;24.19;53.42
62791;BME280;48830;53.426;10.300;2022-07-29T08:47:04;101898.88;;;24.35;52.54
62791;BME280;48830;53.426;10.300;2022-07-29T08:49:30;101891.97;;;25.00;53.22
62791;BME280;48830;53.426;10.300;2022-07-29T08:51:57;101891.97;;;25.00;51.74
62791;BME280;48830;53.426;10.300;2022-07-29T08:54:23;101891.16;;;25.30;51.17
62791;BME280;48830;53.426;10.300;2022-07-29T08:56:50;101887.78;;;25.25;50.61
62791;BME280;48830;53.426;10.300;2022-07-29T08:59:19;101888.13;;;25.13;51.25
62791;BME280;48830;53.426;10.300;2022-07-29T09:01:46;101879.91;;;25.84;50.95
62791;BME280;48830;53.426;10.300;2022-07-29T09:04:13;101886.31;;;26.04;50.35
62791;BME280;48830;53.426;10.300;2022-07-29T09:06:43;101891.53;;;26.33;50.17
62791;BME280;48830;53.426;10.300;2022-07-29T09:09:09;101883.81;;;26.27;48.67
62791;BME280;48830;53.426;10.300;2022-07-29T09:11:34;101891.00;;;26.22;49.04
62791;BME280;48830;53.426;10.300;2022-07-29T09:14:00;101889.06;;;25.71;48.45
62791;BME280;48830;53.426;10.300;2022-07-29T09:16:44;101887.41;;;26.25;48.72
62791;BME280;48830;53.426;10.300;2022-07-29T09:19:31;101888.94;;;26.32;48.09
62791;BME280;48830;53.426;10.300;2022-07-29T09:21:59;101880.38;;;26.52;48.23
62791;BME280;48830;53.426;10.300;2022-07-29T09:24:27;101872.19;;;26.86;49.29
62791;BME280;48830;53.426;10.300;2022-07-29T09:27:01;101873.69;;;27.41;47.66
62791;BME280;48830;53.426;10.300;2022-07-29T09:29:27;101866.41;;;27.25;46.88
62791;BME280;48830;53.426;10.300;2022-07-29T09:31:54;101872.69;;;26.95;46.36
62791;BME280;48830;53.426;10.300;2022-07-29T09:34:23;101866.50;;;27.21;45.25
62791;BME280;48830;53.426;10.300;2022-07-29T09:36:50;101867.72;;;27.13;45.28
62791;BME280;48830;53.426;10.300;2022-07-29T09:39:30;101867.81;;;27.57;44.70
62791;BME280;48830;53.426;10.300;2022-07-29T09:41:58;101868.78;;;27.99;44.78
62791;BME280;48830;53.426;10.300;2022-07-29T09:44:24;101872.97;;;27.60;43.82
62791;BME280;48830;53.426;10.300;2022-07-29T09:49:20;101872.66;;;27.45;43.31
62791;BME280;48830;53.426;10.300;2022-07-29T09:51:45;101871.25;;;27.12;44.01
62791;BME280;48830;53.426;10.300;2022-07-29T09:54:26;101864.53;;;27.27;43.50
62791;BME280;48830;53.426;10.300;2022-07-29T09:56:53;101859.00;;;27.34;43.81
62791;BME280;48830;53.426;10.300;2022-07-29T09:59:20;101866.84;;;27.12;44.43
62791;BME280;48830;53.426;10.300;2022-07-29T10:01:48;101854.22;;;26.95;43.92
62791;BME280;48830;53.426;10.300;2022-07-29T10:04:14;101860.69;;;27.12;43.87
62791;BME280;48830;53.426;10.300;2022-07-29T10:06:55;101855.91;;;27.23;42.82
62791;BME280;48830;53.426;10.300;2022-07-29T10:09:22;101860.69;;;27.12;42.11
62791;BME280;48830;53.426;10.300;2022-07-29T10:12:03;101859.31;;;27.48;43.45
62791;BME280;48830;53.426;10.300;2022-07-29T10:14:31;101857.25;;;27.57;42.99
62791;BME280;48830;53.426;10.300;2022-07-29T10:16:59;101854.50;;;27.36;42.10
62791;BME280;48830;53.426;10.300;2022-07-29T10:19:25;101854.38;;;27.63;43.75
62791;BME280;48830;53.426;10.300;2022-07-29T10:21:51;101850.38;;;27.29;42.53
62791;BME280;48830;53.426;10.300;2022-07-29T10:24:17;101856.50;;;27.53;43.55
62791;BME280;48830;53.426;10.300;2022-07-29T10:26:43;101852.97;;;27.76;42.27
62791;BME280;48830;53.426;10.300;2022-07-29T10:29:11;101842.63;;;28.14;41.92
62791;BME280;48830;53.426;10.300;2022-07-29T10:31:49;101839.63;;;28.23;41.38
62791;BME280;48830;53.426;10.300;2022-07-29T10:44:39;101831.00;;;28.40;40.65
62791;BME280;48830;53.426;10.300;2022-07-29T10:47:05;101818.06;;;28.54;40.26
62791;BME280;48830;53.426;10.300;2022-07-29T10:49:31;101818.47;;;28.84;40.33
62791;BME280;48830;53.426;10.300;2022-07-29T10:52:06;101827.34;;;28.63;39.72
62791;BME280;48830;53.426;10.300;2022-07-29T10:57:30;101816.63;;;28.86;39.87
62791;BME280;48830;53.426;10.300;2022-07-29T11:05:19;101814.91;;;28.85;40.25
62791;BME280;48830;53.426;10.300;2022-07-29T11:10:39;101817.53;;;29.43;38.73
62791;BME280;48830;53.426;10.300;2022-07-29T11:13:05;101808.53;;;28.89;38.31
62791;BME280;48830;53.426;10.300;2022-07-29T11:15:52;101816.34;;;28.92;38.49
62791;BME280;48830;53.426;10.300;2022-07-29T11:18:17;101810.88;;;29.16;38.33
62791;BME280;48830;53.426;10.300;2022-07-29T11:20:47;101806.09;;;29.24;37.27
62791;BME280;48830;53.426;10.300;2022-07-29T11:23:37;101807.69;;;29.66;37.33
62791;BME280;48830;53.426;10.300;2022-07-29T11:26:20;101812.88;;;30.03;37.43
62791;BME280;48830;53.426;10.300;2022-07-29T11:31:19;101796.78;;;30.76;37.37
62791;BME280;48830;53.426;10.300;2022-07-29T11:33:44;101796.78;;;30.76;36.93
62791;BME280;48830;53.426;10.300;2022-07-29T11:36:13;101789.06;;;30.71;36.83
62791;BME280;48830;53.426;10.300;2022-07-29T11:38:38;101784.50;;;31.06;36.05
62791;BME280;48830;53.426;10.300;2022-07-29T11:41:24;101781.59;;;30.95;36.29
62791;BME280;48830;53.426;10.300;2022-07-29T11:43:56;101783.47;;;31.25;37.87
62791;BME280;48830;53.426;10.300;2022-07-29T11:46:49;101795.22;;;31.21;35.15
62791;BME280;48830;53.426;10.300;2022-07-29T11:49:23;101789.31;;;31.63;35.11
62791;BME280;48830;53.426;10.300;2022-07-29T11:51:56;101778.63;;;31.65;33.79
62791;BME280;48830;53.426;10.300;2022-07-29T11:54:32;101780.22;;;31.20;35.39
62791;BME280;48830;53.426;10.300;2022-07-29T11:56:58;101793.44;;;30.72;34.39
62791;BME280;48830;53.426;10.300;2022-07-29T11:59:25;101780.53;;;30.31;34.13
62791;BME280;48830;53.426;10.300;2022-07-29T12:01:58;101785.75;;;30.16;35.97
62791;BME280;48830;53.426;10.300;2022-07-29T12:04:25;101782.88;;;30.20;35.66
62791;BME280;48830;53.426;10.300;2022-07-29T12:06:55;101785.41;;;29.87;36.20
62791;BME280;48830;53.426;10.300;2022-07-29T12:09:22;101776.88;;;29.44;35.68
62791;BME280;48830;53.426;10.300;2022-07-29T12:11:56;101774.44;;;29.59;37.29
62791;BME280;48830;53.426;10.300;2022-07-29T12:14:25;101773.44;;;29.61;37.07
62791;BME280;48830;53.426;10.300;2022-07-29T12:16:51;101772.41;;;29.64;36.39
62791;BME280;48830;53.426;10.300;2022-07-29T12:19:16;101773.00;;;29.51;36.39
62791;BME280;48830;53.426;10.300;2022-07-29T12:21:50;101774.13;;;29.65;38.74
62791;BME280;48830;53.426;10.300;2022-07-29T12:24:16;101767.44;;;29.75;38.21
62791;BME280;48830;53.426;10.300;2022-07-29T12:26:52;101765.91;;;29.88;37.60
62791;BME280;48830;53.426;10.300;2022-07-29T12:29:18;101773.69;;;29.74;36.66
62791;BME280;48830;53.426;10.300;2022-07-29T12:31:44;101768.09;;;29.06;38.47
62791;BME280;48830;53.426;10.300;2022-07-29T12:34:13;101771.72;;;29.41;36.77
62791;BME280;48830;53.426;10.300;2022-07-29T12:36:40;101764.41;;;29.46;37.29
62791;BME280;48830;53.426;10.300;2022-07-29T12:39:06;101761.75;;;29.46;37.36
62791;BME280;48830;53.426;10.300;2022-07-29T12:41:31;101766.13;;;29.47;38.30
62791;BME280;48830;53.426;10.300;2022-07-29T12:43:57;101760.06;;;29.45;36.78
62791;BME280;48830;53.426;10.300;2022-07-29T12:46:22;101768.00;;;29.45;37.33
62791;BME280;48830;53.426;10.300;2022-07-29T12:48:52;101760.81;;;29.47;37.79
62791;BME280;48830;53.426;10.300;2022-07-29T12:51:32;101760.56;;;29.53;36.84
62791;BME280;48830;53.426;10.300;2022-07-29T12:56:29;101750.66;;;29.57;36.34
62791;BME280;48830;53.426;10.300;2022-07-29T12:58:55;101752.94;;;29.65;37.16
62791;BME280;48830;53.426;10.300;2022-07-29T13:01:20;101750.59;;;29.59;36.54
62791;BME280;48830;53.426;10.300;2022-07-29T13:03:58;101756.75;;;29.40;36.42
62791;BME280;48830;53.426;10.300;2022-07-29T13:09:15;101741.56;;;29.80;37.02
62791;BME280;48830;53.426;10.300;2022-07-29T13:11:48;101748.91;;;29.75;35.67
62791;BME280;48830;53.426;10.300;2022-07-29T13:17:11;101734.09;;;29.88;36.97
62791;BME280;48830;53.426;10.300;2022-07-29T13:19:45;101726.59;;;29.62;36.24
62791;BME280;48830;53.426;10.300;2022-07-29T13:22:19;101728.34;;;29.44;37.11
62791;BME280;48830;53.426;10.300;2022-07-29T13:27:19;101726.56;;;29.25;35.95
62791;BME280;48830;53.426;10.300;2022-07-29T13:29:46;101723.91;;;29.25;38.32
62791;BME280;48830;53.426;10.300;2022-07-29T13:32:11;101727.19;;;29.49;37.51
62791;BME280;48830;53.426;10.300;2022-07-29T13:34:37;101719.91;;;29.54;36.97
62791;BME280;48830;53.426;10.300;2022-07-29T13:37:03;101716.13;;;29.59;36.04